createdAt,value
2017-10-03T07:42:16.519Z,15.54
2017-10-03T07:44:49.992Z,15.24
2017-10-03T07:47:23.736Z,15.75
2017-10-03T07:50:01.905Z,15.08
2017-10-03T07:52:35.826Z,15.22
2017-10-03T07:55:10.319Z,15.57
2017-10-03T07:57:44.554Z,15.00
2017-10-03T08:00:19.164Z,15.26
2017-10-03T08:02:53.700Z,15.43
2017-10-03T08:05:25.610Z,15.39
2017-10-03T08:07:57.458Z,15.32
2017-10-03T08:10:30.605Z,15.57
2017-10-03T08:13:24.216Z,15.35
2017-10-03T08:15:57.249Z,15.12
2017-10-03T08:18:31.175Z,15.47
2017-10-03T08:21:05.000Z,15.86
2017-10-03T08:23:37.364Z,16.21
2017-10-03T08:26:09.919Z,15.99
2017-10-03T08:28:43.299Z,15.41
2017-10-03T08:31:17.043Z,15.51
2017-10-03T08:33:53.408Z,15.89
2017-10-03T08:36:26.913Z,15.15
2017-10-03T08:38:59.088Z,14.72
2017-10-03T08:41:31.472Z,15.33
2017-10-03T08:44:12.132Z,14.61
2017-10-03T08:46:45.719Z,14.09
2017-10-03T08:49:18.733Z,13.96
2017-10-03T08:51:59.256Z,14.72
2017-10-03T08:54:34.265Z,13.82
2017-10-03T08:57:11.459Z,14.36
2017-10-03T08:59:47.224Z,14.64
2017-10-03T09:02:21.921Z,14.81
2017-10-03T09:05:10.047Z,14.47
2017-10-03T09:07:50.131Z,15.12
2017-10-03T09:10:23.530Z,15.36
2017-10-03T09:12:56.183Z,15.50
2017-10-03T09:15:27.782Z,15.21
2017-10-03T09:18:01.868Z,15.35
2017-10-03T09:20:35.061Z,15.02
2017-10-03T09:23:08.375Z,15.77
2017-10-03T09:25:45.913Z,16.02
2017-10-03T09:28:20.206Z,15.46
2017-10-03T09:30:52.721Z,15.35
2017-10-03T09:33:26.526Z,15.24
2017-10-03T09:35:59.997Z,15.02
2017-10-03T09:38:32.211Z,15.24
2017-10-03T09:41:08.995Z,15.50
2017-10-03T09:43:40.259Z,15.52
2017-10-03T09:46:16.117Z,15.50
2017-10-03T09:48:57.607Z,15.84
2017-10-03T09:51:31.754Z,15.76
2017-10-03T09:54:04.869Z,16.14
2017-10-03T09:56:36.974Z,15.48
2017-10-03T09:59:08.380Z,16.03
2017-10-03T10:01:40.414Z,16.28
2017-10-03T10:04:15.861Z,16.05
2017-10-03T10:06:49.711Z,15.87
2017-10-03T10:09:25.320Z,15.83
2017-10-03T10:12:00.064Z,16.18
2017-10-03T10:14:35.167Z,16.39
2017-10-03T10:17:07.776Z,16.10
2017-10-03T10:19:39.590Z,16.26
2017-10-03T10:22:18.644Z,16.54
2017-10-03T10:25:00.482Z,16.25
2017-10-03T10:27:34.067Z,15.52
2017-10-03T10:30:09.362Z,15.76
2017-10-03T10:32:44.020Z,15.39
2017-10-03T10:35:16.956Z,15.93
2017-10-03T10:37:56.879Z,16.40
2017-10-03T10:40:42.652Z,16.45
2017-10-03T10:43:17.086Z,16.37
2017-10-03T10:45:52.716Z,16.27
2017-10-03T10:48:24.973Z,15.96
2017-10-03T10:50:56.745Z,16.22
2017-10-03T10:53:31.704Z,16.44
2017-10-03T10:56:03.776Z,16.11
2017-10-03T10:58:40.747Z,15.16
2017-10-03T11:01:15.352Z,16.02
2017-10-03T11:03:50.642Z,16.49
2017-10-03T11:06:25.234Z,15.89
2017-10-03T11:09:00.042Z,16.01
2017-10-03T11:11:35.249Z,16.11
2017-10-03T11:14:12.192Z,16.20
2017-10-03T11:16:47.936Z,16.36
2017-10-03T11:19:29.185Z,16.60
2017-10-03T11:22:05.716Z,17.19
2017-10-03T11:24:47.643Z,17.42
